sensor_id;sensor_type;location;lat;lon;timestamp;P1;durP1;ratioP1;P2;durP2;ratioP2
76608;SDS011;65928;53.936;27.540;2024-01-25T00:02:03;7.97;;;4.47;;
76608;SDS011;65928;53.936;27.540;2024-01-25T00:04:28;8.85;;;5.22;;
76608;SDS011;65928;53.936;27.540;2024-01-25T00:06:54;8.20;;;4.13;;
76608;SDS011;65928;53.936;27.540;2024-01-25T00:09:19;8.57;;;5.35;;
76608;SDS011;65928;53.936;27.540;2024-01-25T00:11:44;9.50;;;5.28;;
76608;SDS011;65928;53.936;27.540;2024-01-25T00:14:10;8.15;;;5.22;;
76608;SDS011;65928;53.936;27.540;2024-01-25T00:16:35;8.07;;;4.78;;
76608;SDS011;65928;53.936;27.540;2024-01-25T00:19:01;7.32;;;5.20;;
76608;SDS011;65928;53.936;27.540;2024-01-25T00:21:26;6.80;;;3.75;;
76608;SDS011;65928;53.936;27.540;2024-01-25T00:23:52;9.63;;;4.95;;
76608;SDS011;65928;53.936;27.540;2024-01-25T00:26:17;9.75;;;5.15;;
76608;SDS011;65928;53.936;27.540;2024-01-25T00:28:43;12.63;;;7.75;;
76608;SDS011;65928;53.936;27.540;2024-01-25T00:31:08;9.98;;;5.97;;
76608;SDS011;65928;53.936;27.540;2024-01-25T00:33:33;8.18;;;5.13;;
76608;SDS011;65928;53.936;27.540;2024-01-25T00:35:59;8.75;;;5.22;;
76608;SDS011;65928;53.936;27.540;2024-01-25T00:38:25;9.18;;;4.88;;
76608;SDS011;65928;53.936;27.540;2024-01-25T00:40:51;7.55;;;4.75;;
76608;SDS011;65928;53.936;27.540;2024-01-25T00:43:17;7.82;;;5.22;;
76608;SDS011;65928;53.936;27.540;2024-01-25T00:45:43;8.80;;;5.68;;
76608;SDS011;65928;53.936;27.540;2024-01-25T00:48:08;9.65;;;5.70;;
76608;SDS011;65928;53.936;27.540;2024-01-25T00:50:35;9.32;;;5.50;;
76608;SDS011;65928;53.936;27.540;2024-01-25T00:53:00;8.93;;;5.00;;
76608;SDS011;65928;53.936;27.540;2024-01-25T00:55:26;7.28;;;4.45;;
76608;SDS011;65928;53.936;27.540;2024-01-25T00:57:51;8.48;;;4.88;;
76608;SDS011;65928;53.936;27.540;2024-01-25T01:00:17;8.80;;;4.97;;
76608;SDS011;65928;53.936;27.540;2024-01-25T01:02:43;4.88;;;3.13;;
76608;SDS011;65928;53.936;27.540;2024-01-25T01:05:10;7.15;;;4.47;;
76608;SDS011;65928;53.936;27.540;2024-01-25T01:07:36;8.50;;;4.63;;
76608;SDS011;65928;53.936;27.540;2024-01-25T01:10:02;7.18;;;4.00;;
76608;SDS011;65928;53.936;27.540;2024-01-25T01:12:28;7.28;;;5.03;;
76608;SDS011;65928;53.936;27.540;2024-01-25T01:14:55;7.45;;;4.82;;
76608;SDS011;65928;53.936;27.540;2024-01-25T01:17:20;5.00;;;2.63;;
76608;SDS011;65928;53.936;27.540;2024-01-25T01:19:46;7.10;;;4.78;;
76608;SDS011;65928;53.936;27.540;2024-01-25T01:22:11;8.32;;;4.68;;
76608;SDS011;65928;53.936;27.540;2024-01-25T01:24:36;8.10;;;5.53;;
76608;SDS011;65928;53.936;27.540;2024-01-25T01:27:02;3.40;;;2.17;;
76608;SDS011;65928;53.936;27.540;2024-01-25T01:29:28;6.18;;;4.60;;
76608;SDS011;65928;53.936;27.540;2024-01-25T01:31:53;9.32;;;5.05;;
76608;SDS011;65928;53.936;27.540;2024-01-25T01:34:18;6.55;;;4.18;;
76608;SDS011;65928;53.936;27.540;2024-01-25T01:36:44;6.75;;;4.47;;
76608;SDS011;65928;53.936;27.540;2024-01-25T01:39:09;8.00;;;4.97;;
76608;SDS011;65928;53.936;27.540;2024-01-25T01:41:35;8.05;;;4.80;;
76608;SDS011;65928;53.936;27.540;2024-01-25T01:44:00;8.32;;;4.90;;
76608;SDS011;65928;53.936;27.540;2024-01-25T01:46:32;5.68;;;3.08;;
76608;SDS011;65928;53.936;27.540;2024-01-25T01:48:58;6.97;;;4.13;;
76608;SDS011;65928;53.936;27.540;2024-01-25T01:51:23;7.55;;;4.70;;
76608;SDS011;65928;53.936;27.540;2024-01-25T01:53:49;7.50;;;4.30;;
76608;SDS011;65928;53.936;27.540;2024-01-25T01:56:15;8.20;;;5.28;;
76608;SDS011;65928;53.936;27.540;2024-01-25T01:58:40;6.35;;;3.42;;
76608;SDS011;65928;53.936;27.540;2024-01-25T02:01:06;7.35;;;4.05;;
76608;SDS011;65928;53.936;27.540;2024-01-25T02:03:32;6.20;;;3.65;;
76608;SDS011;65928;53.936;27.540;2024-01-25T02:05:57;6.00;;;4.05;;
76608;SDS011;65928;53.936;27.540;2024-01-25T02:08:28;9.48;;;4.80;;
76608;SDS011;65928;53.936;27.540;2024-01-25T02:10:54;9.27;;;4.93;;
76608;SDS011;65928;53.936;27.540;2024-01-25T02:13:20;7.45;;;4.88;;
76608;SDS011;65928;53.936;27.540;2024-01-25T02:15:46;5.28;;;3.25;;
76608;SDS011;65928;53.936;27.540;2024-01-25T02:18:11;8.57;;;4.75;;
76608;SDS011;65928;53.936;27.540;2024-01-25T02:20:37;7.97;;;4.40;;
76608;SDS011;65928;53.936;27.540;2024-01-25T02:23:02;7.32;;;4.85;;
76608;SDS011;65928;53.936;27.540;2024-01-25T02:25:27;7.68;;;4.55;;
76608;SDS011;65928;53.936;27.540;2024-01-25T02:27:53;7.13;;;4.43;;
76608;SDS011;65928;53.936;27.540;2024-01-25T02:30:18;6.85;;;4.05;;
76608;SDS011;65928;53.936;27.540;2024-01-25T02:32:44;7.35;;;4.00;;
76608;SDS011;65928;53.936;27.540;2024-01-25T02:35:09;6.10;;;3.83;;
76608;SDS011;65928;53.936;27.540;2024-01-25T02:37:34;6.65;;;4.03;;
76608;SDS011;65928;53.936;27.540;2024-01-25T02:40:00;7.25;;;3.97;;
76608;SDS011;65928;53.936;27.540;2024-01-25T02:42:25;6.57;;;4.05;;
76608;SDS011;65928;53.936;27.540;2024-01-25T02:44:51;6.57;;;3.33;;
76608;SDS011;65928;53.936;27.540;2024-01-25T02:47:16;5.63;;;3.30;;
76608;SDS011;65928;53.936;27.540;2024-01-25T02:49:42;6.50;;;3.20;;
76608;SDS011;65928;53.936;27.540;2024-01-25T02:52:08;5.80;;;2.85;;
76608;SDS011;65928;53.936;27.540;2024-01-25T02:54:36;5.18;;;2.67;;
76608;SDS011;65928;53.936;27.540;2024-01-25T02:57:02;4.82;;;2.60;;
76608;SDS011;65928;53.936;27.540;2024-01-25T02:59:28;5.43;;;3.08;;
76608;SDS011;65928;53.936;27.540;2024-01-25T03:01:53;4.28;;;2.50;;
76608;SDS011;65928;53.936;27.540;2024-01-25T03:04:19;4.85;;;2.92;;
76608;SDS011;65928;53.936;27.540;2024-01-25T03:06:45;3.83;;;1.98;;
76608;SDS011;65928;53.936;27.540;2024-01-25T03:09:10;5.20;;;1.98;;
76608;SDS011;65928;53.936;27.540;2024-01-25T03:11:35;4.45;;;2.70;;
76608;SDS011;65928;53.936;27.540;2024-01-25T03:14:01;5.80;;;2.58;;
76608;SDS011;65928;53.936;27.540;2024-01-25T03:16:26;5.43;;;2.10;;
76608;SDS011;65928;53.936;27.540;2024-01-25T03:18:52;4.10;;;2.60;;
76608;SDS011;65928;53.936;27.540;2024-01-25T03:21:17;3.38;;;2.17;;
76608;SDS011;65928;53.936;27.540;2024-01-25T03:23:42;4.35;;;2.88;;
76608;SDS011;65928;53.936;27.540;2024-01-25T03:26:08;3.78;;;2.13;;
76608;SDS011;65928;53.936;27.540;2024-01-25T03:28:36;4.53;;;3.17;;
76608;SDS011;65928;53.936;27.540;2024-01-25T03:31:03;4.60;;;2.13;;
76608;SDS011;65928;53.936;27.540;2024-01-25T03:33:29;3.15;;;1.77;;
76608;SDS011;65928;53.936;27.540;2024-01-25T03:35:54;5.20;;;2.45;;
76608;SDS011;65928;53.936;27.540;2024-01-25T03:38:20;4.90;;;2.50;;
76608;SDS011;65928;53.936;27.540;2024-01-25T03:40:45;2.15;;;1.20;;
76608;SDS011;65928;53.936;27.540;2024-01-25T03:43:11;4.60;;;1.55;;
76608;SDS011;65928;53.936;27.540;2024-01-25T03:45:36;4.03;;;1.90;;
76608;SDS011;65928;53.936;27.540;2024-01-25T03:48:02;2.63;;;1.50;;
76608;SDS011;65928;53.936;27.540;2024-01-25T03:50:28;4.47;;;4.07;;
76608;SDS011;65928;53.936;27.540;2024-01-25T03:52:53;5.38;;;2.00;;
76608;SDS011;65928;53.936;27.540;2024-01-25T03:55:18;4.15;;;1.88;;
76608;SDS011;65928;53.936;27.540;2024-01-25T03:57:44;3.00;;;1.20;;
76608;SDS011;65928;53.936;27.540;2024-01-25T04:00:10;2.47;;;1.35;;
76608;SDS011;65928;53.936;27.540;2024-01-25T04:02:36;3.92;;;2.00;;
76608;SDS011;65928;53.936;27.540;2024-01-25T04:05:02;2.40;;;1.27;;
76608;SDS011;65928;53.936;27.540;2024-01-25T04:07:27;3.10;;;1.38;;
76608;SDS011;65928;53.936;27.540;2024-01-25T04:09:53;4.20;;;1.27;;
76608;SDS011;65928;53.936;27.540;2024-01-25T04:12:18;4.50;;;1.60;;
76608;SDS011;65928;53.936;27.540;2024-01-25T04:14:44;2.60;;;1.23;;
76608;SDS011;65928;53.936;27.540;2024-01-25T04:17:09;3.13;;;1.40;;
76608;SDS011;65928;53.936;27.540;2024-01-25T04:19:36;2.92;;;1.30;;
76608;SDS011;65928;53.936;27.540;2024-01-25T04:22:01;3.30;;;1.23;;
76608;SDS011;65928;53.936;27.540;2024-01-25T04:24:27;3.67;;;1.20;;
76608;SDS011;65928;53.936;27.540;2024-01-25T04:26:53;2.78;;;1.52;;
76608;SDS011;65928;53.936;27.540;2024-01-25T04:29:18;4.05;;;1.50;;
76608;SDS011;65928;53.936;27.540;2024-01-25T04:31:44;2.00;;;1.00;;
76608;SDS011;65928;53.936;27.540;2024-01-25T04:34:12;3.95;;;1.52;;
76608;SDS011;65928;53.936;27.540;2024-01-25T04:36:37;4.15;;;1.73;;
76608;SDS011;65928;53.936;27.540;2024-01-25T04:39:03;4.38;;;1.33;;
76608;SDS011;65928;53.936;27.540;2024-01-25T04:41:28;3.47;;;1.65;;
76608;SDS011;65928;53.936;27.540;2024-01-25T04:43:54;3.10;;;1.60;;
76608;SDS011;65928;53.936;27.540;2024-01-25T04:46:19;3.22;;;1.70;;
76608;SDS011;65928;53.936;27.540;2024-01-25T04:48:45;4.28;;;1.60;;
76608;SDS011;65928;53.936;27.540;2024-01-25T04:51:17;4.28;;;1.80;;
76608;SDS011;65928;53.936;27.540;2024-01-25T04:53:44;4.68;;;1.60;;
76608;SDS011;65928;53.936;27.540;2024-01-25T04:56:09;4.65;;;1.80;;
76608;SDS011;65928;53.936;27.540;2024-01-25T04:58:35;3.20;;;1.77;;
76608;SDS011;65928;53.936;27.540;2024-01-25T05:01:00;3.97;;;2.10;;
76608;SDS011;65928;53.936;27.540;2024-01-25T05:03:26;3.78;;;2.05;;
76608;SDS011;65928;53.936;27.540;2024-01-25T05:05:51;4.07;;;2.20;;
76608;SDS011;65928;53.936;27.540;2024-01-25T05:08:16;3.58;;;2.13;;
76608;SDS011;65928;53.936;27.540;2024-01-25T05:10:42;2.55;;;1.48;;
76608;SDS011;65928;53.936;27.540;2024-01-25T05:13:08;3.58;;;1.45;;
76608;SDS011;65928;53.936;27.540;2024-01-25T05:15:34;4.78;;;2.35;;
76608;SDS011;65928;53.936;27.540;2024-01-25T05:18:00;8.75;;;1.40;;
76608;SDS011;65928;53.936;27.540;2024-01-25T05:20:26;6.20;;;2.45;;
76608;SDS011;65928;53.936;27.540;2024-01-25T05:23:01;5.55;;;2.55;;
76608;SDS011;65928;53.936;27.540;2024-01-25T05:25:26;3.85;;;2.30;;
76608;SDS011;65928;53.936;27.540;2024-01-25T05:27:52;6.65;;;2.67;;
76608;SDS011;65928;53.936;27.540;2024-01-25T05:30:18;3.85;;;2.15;;
76608;SDS011;65928;53.936;27.540;2024-01-25T05:32:44;5.63;;;3.00;;
76608;SDS011;65928;53.936;27.540;2024-01-25T05:35:11;6.82;;;2.72;;
76608;SDS011;65928;53.936;27.540;2024-01-25T05:37:36;4.38;;;2.47;;
76608;SDS011;65928;53.936;27.540;2024-01-25T05:40:02;5.68;;;2.58;;
76608;SDS011;65928;53.936;27.540;2024-01-25T05:42:27;3.92;;;2.53;;
76608;SDS011;65928;53.936;27.540;2024-01-25T05:44:53;6.72;;;3.10;;
76608;SDS011;65928;53.936;27.540;2024-01-25T05:47:18;7.47;;;2.75;;
76608;SDS011;65928;53.936;27.540;2024-01-25T05:49:44;3.70;;;2.30;;
76608;SDS011;65928;53.936;27.540;2024-01-25T05:52:09;4.72;;;2.60;;
76608;SDS011;65928;53.936;27.540;2024-01-25T05:54:35;2.92;;;1.77;;
76608;SDS011;65928;53.936;27.540;2024-01-25T05:57:00;4.70;;;2.60;;
76608;SDS011;65928;53.936;27.540;2024-01-25T05:59:26;5.65;;;1.85;;
76608;SDS011;65928;53.936;27.540;2024-01-25T06:01:51;3.58;;;2.20;;
76608;SDS011;65928;53.936;27.540;2024-01-25T06:04:16;3.95;;;2.38;;
76608;SDS011;65928;53.936;27.540;2024-01-25T06:06:42;4.82;;;2.17;;
76608;SDS011;65928;53.936;27.540;2024-01-25T06:09:07;5.28;;;2.58;;
76608;SDS011;65928;53.936;27.540;2024-01-25T06:11:33;2.78;;;1.48;;
76608;SDS011;65928;53.936;27.540;2024-01-25T06:14:00;2.65;;;1.45;;
76608;SDS011;65928;53.936;27.540;2024-01-25T06:16:25;2.63;;;1.75;;
76608;SDS011;65928;53.936;27.540;2024-01-25T06:18:51;3.10;;;1.33;;
76608;SDS011;65928;53.936;27.540;2024-01-25T06:21:16;6.75;;;2.50;;
76608;SDS011;65928;53.936;27.540;2024-01-25T06:23:42;4.15;;;2.08;;
76608;SDS011;65928;53.936;27.540;2024-01-25T06:26:07;2.42;;;1.52;;
76608;SDS011;65928;53.936;27.540;2024-01-25T06:28:33;3.85;;;2.25;;
76608;SDS011;65928;53.936;27.540;2024-01-25T06:31:00;4.18;;;1.48;;
76608;SDS011;65928;53.936;27.540;2024-01-25T06:33:26;4.35;;;2.08;;
76608;SDS011;65928;53.936;27.540;2024-01-25T06:35:52;7.13;;;3.95;;
76608;SDS011;65928;53.936;27.540;2024-01-25T06:38:17;2.97;;;1.63;;
76608;SDS011;65928;53.936;27.540;2024-01-25T06:40:43;3.35;;;2.22;;
76608;SDS011;65928;53.936;27.540;2024-01-25T06:43:09;6.72;;;3.20;;
76608;SDS011;65928;53.936;27.540;2024-01-25T06:45:34;14.45;;;6.47;;
76608;SDS011;65928;53.936;27.540;2024-01-25T06:48:00;8.35;;;4.35;;
76608;SDS011;65928;53.936;27.540;2024-01-25T06:50:25;6.90;;;3.97;;
76608;SDS011;65928;53.936;27.540;2024-01-25T06:52:51;7.10;;;3.95;;
76608;SDS011;65928;53.936;27.540;2024-01-25T06:55:18;11.15;;;5.75;;
76608;SDS011;65928;53.936;27.540;2024-01-25T06:57:44;9.57;;;5.05;;
76608;SDS011;65928;53.936;27.540;2024-01-25T07:00:09;10.27;;;5.07;;
76608;SDS011;65928;53.936;27.540;2024-01-25T07:02:38;7.63;;;5.15;;
76608;SDS011;65928;53.936;27.540;2024-01-25T07:05:03;4.50;;;3.38;;
76608;SDS011;65928;53.936;27.540;2024-01-25T07:07:29;4.60;;;2.75;;
76608;SDS011;65928;53.936;27.540;2024-01-25T07:09:57;5.40;;;3.13;;
76608;SDS011;65928;53.936;27.540;2024-01-25T07:12:22;5.30;;;2.88;;
76608;SDS011;65928;53.936;27.540;2024-01-25T07:14:48;5.07;;;3.03;;
76608;SDS011;65928;53.936;27.540;2024-01-25T07:17:13;3.78;;;2.65;;
76608;SDS011;65928;53.936;27.540;2024-01-25T07:19:39;4.55;;;2.78;;
76608;SDS011;65928;53.936;27.540;2024-01-25T07:22:04;3.28;;;2.05;;
76608;SDS011;65928;53.936;27.540;2024-01-25T07:24:30;4.18;;;2.90;;
76608;SDS011;65928;53.936;27.540;2024-01-25T07:26:56;4.35;;;3.40;;
76608;SDS011;65928;53.936;27.540;2024-01-25T07:29:21;4.45;;;2.70;;
76608;SDS011;65928;53.936;27.540;2024-01-25T07:31:46;3.03;;;1.55;;
76608;SDS011;65928;53.936;27.540;2024-01-25T07:34:12;1.83;;;0.93;;
76608;SDS011;65928;53.936;27.540;2024-01-25T07:36:37;2.20;;;1.13;;
76608;SDS011;65928;53.936;27.540;2024-01-25T07:39:03;3.45;;;1.80;;
76608;SDS011;65928;53.936;27.540;2024-01-25T07:41:28;3.60;;;2.08;;
76608;SDS011;65928;53.936;27.540;2024-01-25T07:43:53;3.30;;;1.75;;
76608;SDS011;65928;53.936;27.540;2024-01-25T07:46:20;2.00;;;1.02;;
76608;SDS011;65928;53.936;27.540;2024-01-25T07:48:47;1.73;;;0.85;;
76608;SDS011;65928;53.936;27.540;2024-01-25T07:51:13;1.55;;;0.70;;
76608;SDS011;65928;53.936;27.540;2024-01-25T07:53:38;2.50;;;1.00;;
76608;SDS011;65928;53.936;27.540;2024-01-25T07:56:06;2.97;;;1.45;;
76608;SDS011;65928;53.936;27.540;2024-01-25T07:58:32;2.25;;;1.02;;
76608;SDS011;65928;53.936;27.540;2024-01-25T08:00:58;3.15;;;1.00;;
76608;SDS011;65928;53.936;27.540;2024-01-25T08:03:23;2.53;;;1.00;;
76608;SDS011;65928;53.936;27.540;2024-01-25T08:05:49;1.70;;;0.73;;
76608;SDS011;65928;53.936;27.540;2024-01-25T08:08:14;2.60;;;0.80;;
76608;SDS011;65928;53.936;27.540;2024-01-25T08:10:39;2.30;;;1.20;;
76608;SDS011;65928;53.936;27.540;2024-01-25T08:13:05;1.63;;;0.70;;
76608;SDS011;65928;53.936;27.540;2024-01-25T08:15:31;1.77;;;0.88;;
76608;SDS011;65928;53.936;27.540;2024-01-25T08:17:56;1.80;;;0.80;;
76608;SDS011;65928;53.936;27.540;2024-01-25T08:20:22;1.73;;;0.90;;
76608;SDS011;65928;53.936;27.540;2024-01-25T08:22:48;2.33;;;0.95;;
76608;SDS011;65928;53.936;27.540;2024-01-25T08:25:13;2.67;;;1.33;;
76608;SDS011;65928;53.936;27.540;2024-01-25T08:27:39;2.55;;;1.30;;
76608;SDS011;65928;53.936;27.540;2024-01-25T08:30:05;1.77;;;0.80;;
76608;SDS011;65928;53.936;27.540;2024-01-25T08:32:31;2.50;;;1.15;;
76608;SDS011;65928;53.936;27.540;2024-01-25T08:34:56;1.70;;;0.80;;
76608;SDS011;65928;53.936;27.540;2024-01-25T08:37:21;2.80;;;1.10;;
76608;SDS011;65928;53.936;27.540;2024-01-25T08:39:47;1.90;;;1.05;;
76608;SDS011;65928;53.936;27.540;2024-01-25T08:42:16;2.45;;;1.40;;
76608;SDS011;65928;53.936;27.540;2024-01-25T08:44:42;1.95;;;1.20;;
76608;SDS011;65928;53.936;27.540;2024-01-25T08:47:14;1.52;;;0.70;;
76608;SDS011;65928;53.936;27.540;2024-01-25T08:49:42;4.82;;;1.02;;
76608;SDS011;65928;53.936;27.540;2024-01-25T08:52:08;2.10;;;0.95;;
76608;SDS011;65928;53.936;27.540;2024-01-25T08:54:34;1.95;;;0.77;;
76608;SDS011;65928;53.936;27.540;2024-01-25T08:57:00;2.10;;;0.80;;
76608;SDS011;65928;53.936;27.540;2024-01-25T08:59:26;1.65;;;0.85;;
76608;SDS011;65928;53.936;27.540;2024-01-25T09:01:53;1.75;;;0.80;;
76608;SDS011;65928;53.936;27.540;2024-01-25T09:04:18;2.60;;;1.25;;
76608;SDS011;65928;53.936;27.540;2024-01-25T09:06:44;3.65;;;1.48;;
76608;SDS011;65928;53.936;27.540;2024-01-25T09:09:09;2.30;;;1.10;;
76608;SDS011;65928;53.936;27.540;2024-01-25T09:11:36;2.88;;;1.13;;
76608;SDS011;65928;53.936;27.540;2024-01-25T09:14:01;1.50;;;0.80;;
76608;SDS011;65928;53.936;27.540;2024-01-25T09:16:27;1.50;;;0.68;;
76608;SDS011;65928;53.936;27.540;2024-01-25T09:18:52;3.03;;;1.33;;
76608;SDS011;65928;53.936;27.540;2024-01-25T09:21:17;3.17;;;0.82;;
76608;SDS011;65928;53.936;27.540;2024-01-25T09:23:43;2.25;;;0.90;;
76608;SDS011;65928;53.936;27.540;2024-01-25T09:26:08;2.38;;;0.88;;
76608;SDS011;65928;53.936;27.540;2024-01-25T09:28:34;2.42;;;1.00;;
76608;SDS011;65928;53.936;27.540;2024-01-25T09:30:59;5.43;;;1.20;;
76608;SDS011;65928;53.936;27.540;2024-01-25T09:33:25;2.08;;;0.90;;
76608;SDS011;65928;53.936;27.540;2024-01-25T09:35:50;4.40;;;0.93;;
76608;SDS011;65928;53.936;27.540;2024-01-25T09:38:15;3.85;;;1.20;;
76608;SDS011;65928;53.936;27.540;2024-01-25T09:40:41;2.83;;;1.23;;
76608;SDS011;65928;53.936;27.540;2024-01-25T09:43:06;1.67;;;0.80;;
76608;SDS011;65928;53.936;27.540;2024-01-25T09:45:33;2.78;;;1.10;;
76608;SDS011;65928;53.936;27.540;2024-01-25T09:47:59;2.00;;;0.98;;
76608;SDS011;65928;53.936;27.540;2024-01-25T09:50:29;1.92;;;1.00;;
76608;SDS011;65928;53.936;27.540;2024-01-25T09:52:58;1.73;;;0.80;;
76608;SDS011;65928;53.936;27.540;2024-01-25T09:55:25;2.05;;;1.02;;
76608;SDS011;65928;53.936;27.540;2024-01-25T09:57:53;2.83;;;1.67;;
76608;SDS011;65928;53.936;27.540;2024-01-25T10:00:20;2.85;;;1.27;;
76608;SDS011;65928;53.936;27.540;2024-01-25T10:02:47;3.22;;;1.08;;
76608;SDS011;65928;53.936;27.540;2024-01-25T10:05:14;2.65;;;1.30;;
76608;SDS011;65928;53.936;27.540;2024-01-25T10:07:41;2.33;;;0.93;;
76608;SDS011;65928;53.936;27.540;2024-01-25T10:10:08;2.03;;;0.98;;
76608;SDS011;65928;53.936;27.540;2024-01-25T10:12:34;3.17;;;1.17;;
76608;SDS011;65928;53.936;27.540;2024-01-25T10:14:59;2.88;;;1.60;;
76608;SDS011;65928;53.936;27.540;2024-01-25T10:17:25;2.30;;;1.00;;
76608;SDS011;65928;53.936;27.540;2024-01-25T10:19:51;3.67;;;1.23;;
76608;SDS011;65928;53.936;27.540;2024-01-25T10:22:16;3.05;;;1.40;;
76608;SDS011;65928;53.936;27.540;2024-01-25T10:24:42;2.58;;;1.55;;
76608;SDS011;65928;53.936;27.540;2024-01-25T10:27:08;2.10;;;0.98;;
76608;SDS011;65928;53.936;27.540;2024-01-25T10:29:36;2.67;;;1.20;;
76608;SDS011;65928;53.936;27.540;2024-01-25T10:32:02;2.47;;;1.52;;
76608;SDS011;65928;53.936;27.540;2024-01-25T10:34:28;2.83;;;1.23;;
76608;SDS011;65928;53.936;27.540;2024-01-25T10:36:54;2.33;;;1.40;;
76608;SDS011;65928;53.936;27.540;2024-01-25T10:39:21;3.45;;;1.90;;
76608;SDS011;65928;53.936;27.540;2024-01-25T10:41:46;3.63;;;1.98;;
76608;SDS011;65928;53.936;27.540;2024-01-25T10:44:15;3.00;;;1.45;;
76608;SDS011;65928;53.936;27.540;2024-01-25T10:46:46;3.33;;;2.00;;
76608;SDS011;65928;53.936;27.540;2024-01-25T10:49:12;4.72;;;2.70;;
76608;SDS011;65928;53.936;27.540;2024-01-25T10:51:38;3.53;;;2.38;;
76608;SDS011;65928;53.936;27.540;2024-01-25T10:54:05;3.47;;;1.80;;
76608;SDS011;65928;53.936;27.540;2024-01-25T10:56:32;2.70;;;1.60;;
76608;SDS011;65928;53.936;27.540;2024-01-25T10:58:59;2.20;;;1.50;;
76608;SDS011;65928;53.936;27.540;2024-01-25T11:01:24;2.47;;;1.48;;
76608;SDS011;65928;53.936;27.540;2024-01-25T11:03:52;3.55;;;1.67;;
76608;SDS011;65928;53.936;27.540;2024-01-25T11:06:20;3.17;;;2.08;;
76608;SDS011;65928;53.936;27.540;2024-01-25T11:08:47;3.42;;;1.70;;
76608;SDS011;65928;53.936;27.540;2024-01-25T11:11:13;2.72;;;1.63;;
76608;SDS011;65928;53.936;27.540;2024-01-25T11:13:40;4.32;;;2.20;;
76608;SDS011;65928;53.936;27.540;2024-01-25T11:16:12;3.05;;;1.90;;
76608;SDS011;65928;53.936;27.540;2024-01-25T11:18:55;1.80;;;1.00;;
76608;SDS011;65928;53.936;27.540;2024-01-25T11:24:14;3.13;;;2.10;;
76608;SDS011;65928;53.936;27.540;2024-01-25T11:26:51;2.45;;;1.50;;
76608;SDS011;65928;53.936;27.540;2024-01-25T11:29:17;2.55;;;1.55;;
76608;SDS011;65928;53.936;27.540;2024-01-25T11:31:43;2.83;;;1.40;;
76608;SDS011;65928;53.936;27.540;2024-01-25T11:34:10;2.28;;;1.38;;
76608;SDS011;65928;53.936;27.540;2024-01-25T11:36:36;3.35;;;1.60;;
76608;SDS011;65928;53.936;27.540;2024-01-25T11:39:02;3.20;;;1.55;;
76608;SDS011;65928;53.936;27.540;2024-01-25T11:41:28;2.25;;;1.23;;
76608;SDS011;65928;53.936;27.540;2024-01-25T11:43:55;3.45;;;1.30;;
76608;SDS011;65928;53.936;27.540;2024-01-25T11:46:21;4.53;;;1.30;;
76608;SDS011;65928;53.936;27.540;2024-01-25T11:48:46;3.55;;;1.75;;
76608;SDS011;65928;53.936;27.540;2024-01-25T11:51:12;2.53;;;1.33;;
76608;SDS011;65928;53.936;27.540;2024-01-25T11:53:37;5.68;;;3.08;;
76608;SDS011;65928;53.936;27.540;2024-01-25T11:56:04;4.28;;;2.25;;
76608;SDS011;65928;53.936;27.540;2024-01-25T11:58:32;6.88;;;3.28;;
76608;SDS011;65928;53.936;27.540;2024-01-25T12:00:58;3.10;;;1.75;;
76608;SDS011;65928;53.936;27.540;2024-01-25T12:03:24;4.15;;;2.35;;
76608;SDS011;65928;53.936;27.540;2024-01-25T12:05:50;3.83;;;1.60;;
76608;SDS011;65928;53.936;27.540;2024-01-25T12:08:16;2.60;;;1.35;;
76608;SDS011;65928;53.936;27.540;2024-01-25T12:10:42;2.55;;;1.05;;
76608;SDS011;65928;53.936;27.540;2024-01-25T12:13:07;3.35;;;1.40;;
76608;SDS011;65928;53.936;27.540;2024-01-25T12:15:34;2.67;;;1.10;;
76608;SDS011;65928;53.936;27.540;2024-01-25T12:18:00;2.65;;;1.35;;
76608;SDS011;65928;53.936;27.540;2024-01-25T12:20:26;3.90;;;1.80;;
76608;SDS011;65928;53.936;27.540;2024-01-25T12:22:51;4.45;;;2.10;;
76608;SDS011;65928;53.936;27.540;2024-01-25T12:25:17;1.45;;;0.77;;
76608;SDS011;65928;53.936;27.540;2024-01-25T12:27:43;3.22;;;1.58;;
76608;SDS011;65928;53.936;27.540;2024-01-25T12:30:11;2.25;;;1.25;;
76608;SDS011;65928;53.936;27.540;2024-01-25T12:32:37;2.08;;;0.90;;
76608;SDS011;65928;53.936;27.540;2024-01-25T12:35:03;2.95;;;1.38;;
76608;SDS011;65928;53.936;27.540;2024-01-25T12:37:33;3.05;;;1.23;;
76608;SDS011;65928;53.936;27.540;2024-01-25T12:39:58;2.20;;;1.02;;
76608;SDS011;65928;53.936;27.540;2024-01-25T12:42:23;2.10;;;1.08;;
76608;SDS011;65928;53.936;27.540;2024-01-25T12:44:52;1.70;;;0.90;;
76608;SDS011;65928;53.936;27.540;2024-01-25T12:47:19;2.10;;;1.30;;
76608;SDS011;65928;53.936;27.540;2024-01-25T12:49:44;1.80;;;0.90;;
76608;SDS011;65928;53.936;27.540;2024-01-25T12:52:10;2.35;;;1.55;;
76608;SDS011;65928;53.936;27.540;2024-01-25T12:54:38;2.50;;;1.50;;
76608;SDS011;65928;53.936;27.540;2024-01-25T12:57:04;2.58;;;1.27;;
76608;SDS011;65928;53.936;27.540;2024-01-25T12:59:30;2.03;;;1.23;;
76608;SDS011;65928;53.936;27.540;2024-01-25T13:01:55;2.67;;;1.33;;
76608;SDS011;65928;53.936;27.540;2024-01-25T13:04:21;2.65;;;1.55;;
76608;SDS011;65928;53.936;27.540;2024-01-25T13:06:48;2.30;;;1.30;;
76608;SDS011;65928;53.936;27.540;2024-01-25T13:09:13;2.03;;;1.13;;
76608;SDS011;65928;53.936;27.540;2024-01-25T13:11:40;1.90;;;1.13;;
76608;SDS011;65928;53.936;27.540;2024-01-25T13:14:06;4.18;;;1.73;;
76608;SDS011;65928;53.936;27.540;2024-01-25T13:16:32;2.08;;;1.00;;
76608;SDS011;65928;53.936;27.540;2024-01-25T13:18:57;3.83;;;1.33;;
76608;SDS011;65928;53.936;27.540;2024-01-25T13:21:23;2.28;;;1.15;;
76608;SDS011;65928;53.936;27.540;2024-01-25T13:23:49;2.55;;;1.08;;
76608;SDS011;65928;53.936;27.540;2024-01-25T13:26:14;2.00;;;0.82;;
76608;SDS011;65928;53.936;27.540;2024-01-25T13:28:39;2.28;;;1.10;;
76608;SDS011;65928;53.936;27.540;2024-01-25T13:31:05;2.67;;;1.35;;
76608;SDS011;65928;53.936;27.540;2024-01-25T13:33:30;3.00;;;1.40;;
76608;SDS011;65928;53.936;27.540;2024-01-25T13:35:56;1.80;;;0.93;;
76608;SDS011;65928;53.936;27.540;2024-01-25T13:38:21;2.42;;;1.10;;
76608;SDS011;65928;53.936;27.540;2024-01-25T13:40:46;2.72;;;1.45;;
76608;SDS011;65928;53.936;27.540;2024-01-25T13:43:12;1.83;;;1.20;;
76608;SDS011;65928;53.936;27.540;2024-01-25T13:45:37;2.25;;;1.15;;
76608;SDS011;65928;53.936;27.540;2024-01-25T13:48:03;2.53;;;1.00;;
76608;SDS011;65928;53.936;27.540;2024-01-25T13:50:29;2.20;;;1.10;;
76608;SDS011;65928;53.936;27.540;2024-01-25T13:52:54;2.13;;;1.02;;
76608;SDS011;65928;53.936;27.540;2024-01-25T13:55:20;2.60;;;1.38;;
76608;SDS011;65928;53.936;27.540;2024-01-25T13:57:45;3.58;;;1.88;;
76608;SDS011;65928;53.936;27.540;2024-01-25T14:00:11;2.70;;;1.48;;
76608;SDS011;65928;53.936;27.540;2024-01-25T14:02:39;2.65;;;1.30;;
76608;SDS011;65928;53.936;27.540;2024-01-25T14:05:07;2.55;;;1.33;;
76608;SDS011;65928;53.936;27.540;2024-01-25T14:07:33;2.67;;;1.30;;
76608;SDS011;65928;53.936;27.540;2024-01-25T14:09:58;2.13;;;1.17;;
76608;SDS011;65928;53.936;27.540;2024-01-25T14:12:23;1.80;;;1.00;;
76608;SDS011;65928;53.936;27.540;2024-01-25T14:14:49;3.58;;;1.90;;
76608;SDS011;65928;53.936;27.540;2024-01-25T14:17:14;2.65;;;1.67;;
76608;SDS011;65928;53.936;27.540;2024-01-25T14:19:40;12.15;;;7.63;;
76608;SDS011;65928;53.936;27.540;2024-01-25T14:22:05;4.68;;;2.65;;
76608;SDS011;65928;53.936;27.540;2024-01-25T14:24:31;3.00;;;1.67;;
76608;SDS011;65928;53.936;27.540;2024-01-25T14:26:56;2.88;;;1.13;;
76608;SDS011;65928;53.936;27.540;2024-01-25T14:29:22;2.88;;;1.00;;